createdAt,value
2023-02-21T00:00:29.796Z,3.70
2023-02-21T00:03:17.339Z,4.50
2023-02-21T00:06:04.003Z,4.90
2023-02-21T00:08:51.280Z,4.00
2023-02-21T00:11:38.849Z,3.90
2023-02-21T00:14:25.871Z,3.60
2023-02-21T00:17:13.040Z,3.40
2023-02-21T00:20:00.175Z,4.50
2023-02-21T00:22:47.334Z,5.10
2023-02-21T00:25:34.834Z,4.90
2023-02-21T00:28:22.306Z,4.70
2023-02-21T00:31:10.723Z,3.80
2023-02-21T00:33:58.478Z,4.20
2023-02-21T00:36:47.810Z,4.70
2023-02-21T00:39:34.510Z,4.80
2023-02-21T00:42:22.014Z,4.50
2023-02-21T00:45:08.949Z,4.70
2023-02-21T00:47:56.724Z,4.50
2023-02-21T00:50:47.349Z,4.80
2023-02-21T00:53:35.649Z,5.80
2023-02-21T00:56:23.012Z,5.30
2023-02-21T00:59:10.159Z,4.80
2023-02-21T01:01:58.731Z,6.40
2023-02-21T01:04:45.809Z,5.90
2023-02-21T01:07:35.816Z,5.10
2023-02-21T01:10:26.489Z,5.70
2023-02-21T01:13:14.150Z,5.90
2023-02-21T01:16:01.349Z,6.10
2023-02-21T01:18:49.453Z,5.90
2023-02-21T01:21:37.174Z,5.30
2023-02-21T01:24:25.008Z,5.30
2023-02-21T01:27:12.333Z,5.30
2023-02-21T01:29:59.937Z,4.10
2023-02-21T01:32:47.066Z,3.70
2023-02-21T01:35:34.438Z,4.10
2023-02-21T01:38:22.217Z,4.10
2023-02-21T01:41:09.541Z,4.20
2023-02-21T01:43:57.494Z,4.60
2023-02-21T01:46:45.606Z,6.60
2023-02-21T01:49:35.907Z,4.90
2023-02-21T01:52:30.877Z,5.10
2023-02-21T01:55:18.417Z,4.60
2023-02-21T01:58:06.126Z,4.80
2023-02-21T02:00:53.622Z,6.10
2023-02-21T02:03:41.175Z,6.30
2023-02-21T02:06:32.097Z,5.60
2023-02-21T02:09:35.637Z,5.50
2023-02-21T02:12:25.810Z,7.00
2023-02-21T02:15:08.244Z,6.10
2023-02-21T02:17:59.259Z,6.20
2023-02-21T02:20:28.013Z,8.10
2023-02-21T02:23:17.346Z,8.10
2023-02-21T02:26:07.954Z,7.60
2023-02-21T02:28:45.105Z,6.30
2023-02-21T02:31:32.684Z,4.50
2023-02-21T02:34:26.230Z,5.50
2023-02-21T02:37:06.039Z,5.30
2023-02-21T02:40:06.006Z,4.30
2023-02-21T02:43:16.442Z,5.00
2023-02-21T02:45:48.812Z,5.00
2023-02-21T02:48:24.124Z,6.70
2023-02-21T02:50:53.055Z,4.40
2023-02-21T02:53:25.889Z,5.30
2023-02-21T02:55:59.103Z,5.40
2023-02-21T02:58:31.138Z,5.30
2023-02-21T03:01:18.937Z,4.70
2023-02-21T03:04:13.317Z,4.90
2023-02-21T03:07:04.378Z,6.70
2023-02-21T03:09:34.133Z,4.30
2023-02-21T03:12:27.133Z,5.20
2023-02-21T03:15:17.592Z,4.60
2023-02-21T03:17:52.593Z,3.60
2023-02-21T03:20:21.407Z,4.90
2023-02-21T03:22:50.237Z,4.00
2023-02-21T03:25:19.256Z,5.40
2023-02-21T03:27:48.902Z,5.60
2023-02-21T03:30:27.058Z,4.10
2023-02-21T03:32:57.168Z,4.20
2023-02-21T03:35:29.645Z,4.10
2023-02-21T03:37:58.906Z,4.80
2023-02-21T03:40:30.024Z,5.30
2023-02-21T03:43:03.219Z,4.20
2023-02-21T03:45:36.495Z,4.30
2023-02-21T03:48:26.131Z,5.10
2023-02-21T03:51:01.208Z,4.10
2023-02-21T03:53:33.646Z,4.60
2023-02-21T03:56:02.834Z,4.30
2023-02-21T03:58:41.848Z,4.50
2023-02-21T04:01:10.351Z,4.10
2023-02-21T04:03:38.948Z,3.70
2023-02-21T04:06:07.835Z,3.70
2023-02-21T04:08:36.984Z,4.10
2023-02-21T04:11:06.046Z,4.10
2023-02-21T04:13:36.851Z,4.20
2023-02-21T04:18:39.521Z,3.60
2023-02-21T04:21:10.010Z,3.40
2023-02-21T04:23:39.452Z,4.00
2023-02-21T04:26:08.492Z,4.00
2023-02-21T04:28:45.222Z,5.00
2023-02-21T04:31:15.871Z,3.60
2023-02-21T04:33:45.431Z,3.90
2023-02-21T04:38:46.545Z,4.00
2023-02-21T04:41:15.636Z,4.10
2023-02-21T04:43:44.816Z,4.30
2023-02-21T04:46:16.206Z,3.80
2023-02-21T04:48:46.261Z,4.80
2023-02-21T04:51:16.133Z,5.00
2023-02-21T04:53:48.344Z,3.60
2023-02-21T04:56:19.186Z,3.70
2023-02-21T04:58:54.058Z,4.10
2023-02-21T05:01:22.946Z,3.40
2023-02-21T05:03:51.734Z,4.10
2023-02-21T05:06:21.272Z,3.90
2023-02-21T05:08:50.207Z,4.30
2023-02-21T05:11:20.064Z,4.30
2023-02-21T05:13:49.177Z,4.60
2023-02-21T05:16:22.197Z,4.70
2023-02-21T05:18:51.147Z,4.70
2023-02-21T05:21:19.839Z,4.70
2023-02-21T05:23:57.553Z,4.10
2023-02-21T05:26:31.062Z,5.00
2023-02-21T05:28:59.969Z,5.20
2023-02-21T05:31:29.004Z,4.50
2023-02-21T05:33:58.128Z,5.30
2023-02-21T05:36:26.934Z,4.10
2023-02-21T05:38:56.064Z,5.40
2023-02-21T05:41:25.121Z,4.80
2023-02-21T05:43:53.956Z,3.70
2023-02-21T05:46:27.092Z,3.90
2023-02-21T05:48:59.120Z,4.40
2023-02-21T05:51:28.200Z,3.90
2023-02-21T05:53:56.880Z,3.00
2023-02-21T05:56:26.073Z,3.40
2023-02-21T05:58:54.703Z,3.50
2023-02-21T06:01:23.195Z,3.20
2023-02-21T06:03:52.116Z,2.70
2023-02-21T06:06:20.944Z,2.90
2023-02-21T06:08:49.733Z,2.90
2023-02-21T06:11:29.650Z,2.90
2023-02-21T06:14:00.321Z,2.40
2023-02-21T06:16:33.398Z,2.90
2023-02-21T06:19:02.545Z,2.20
2023-02-21T06:21:31.125Z,2.60
2023-02-21T06:24:00.097Z,2.00
2023-02-21T06:26:28.859Z,1.70
2023-02-21T06:28:57.620Z,1.60
2023-02-21T06:31:27.799Z,1.90
2023-02-21T06:33:56.800Z,1.80
2023-02-21T06:36:26.514Z,1.70
2023-02-21T06:38:56.186Z,2.00
2023-02-21T06:41:28.910Z,1.30
2023-02-21T06:43:57.670Z,2.20
2023-02-21T06:46:27.711Z,1.60
2023-02-21T06:48:56.433Z,1.40
2023-02-21T06:51:29.978Z,2.30
2023-02-21T06:53:59.495Z,1.80
2023-02-21T06:56:30.826Z,2.50
2023-02-21T06:59:03.218Z,2.00
2023-02-21T07:01:32.428Z,1.20
2023-02-21T07:04:01.017Z,1.10
2023-02-21T07:06:31.363Z,1.10
2023-02-21T07:08:59.495Z,1.30
2023-02-21T07:11:27.965Z,1.10
2023-02-21T07:13:59.410Z,1.20
2023-02-21T07:16:31.835Z,1.50
2023-02-21T07:19:00.742Z,1.80
2023-02-21T07:21:29.778Z,1.50
2023-02-21T07:23:58.610Z,1.60
2023-02-21T07:26:27.492Z,1.00
2023-02-21T07:28:56.206Z,1.60
2023-02-21T07:31:25.887Z,1.40
2023-02-21T07:33:57.318Z,1.60
2023-02-21T07:36:26.017Z,1.90
2023-02-21T07:38:54.642Z,1.50
2023-02-21T07:41:23.625Z,1.70
2023-02-21T07:43:52.471Z,1.80
2023-02-21T07:46:21.076Z,1.20
2023-02-21T07:48:50.008Z,1.90
2023-02-21T07:51:18.729Z,2.00
2023-02-21T07:53:47.548Z,1.60
2023-02-21T07:56:16.143Z,1.20
2023-02-21T07:58:44.772Z,1.70
2023-02-21T08:01:14.050Z,1.70
2023-02-21T08:03:42.730Z,1.80
2023-02-21T08:06:11.958Z,1.70
2023-02-21T08:08:42.125Z,2.80
2023-02-21T08:11:10.942Z,1.40
2023-02-21T08:13:40.944Z,1.60
2023-02-21T08:16:09.512Z,2.50
2023-02-21T08:18:38.820Z,2.20
2023-02-21T08:21:09.888Z,1.90
2023-02-21T08:23:38.650Z,1.90
2023-02-21T08:26:08.600Z,2.10
2023-02-21T08:28:37.569Z,2.20
2023-02-21T08:31:07.234Z,1.80
2023-02-21T08:33:37.061Z,2.40
2023-02-21T08:36:07.245Z,1.90
2023-02-21T08:38:36.738Z,2.30
2023-02-21T08:41:06.345Z,2.70
2023-02-21T08:43:35.198Z,1.90
2023-02-21T08:46:04.384Z,2.00
2023-02-21T08:48:34.406Z,2.00
2023-02-21T08:51:03.745Z,2.30
2023-02-21T08:53:33.661Z,2.00
2023-02-21T08:56:02.341Z,1.90
2023-02-21T08:58:31.024Z,1.60
2023-02-21T09:00:59.920Z,2.40
2023-02-21T09:03:28.688Z,2.00
2023-02-21T09:05:57.734Z,1.90
2023-02-21T09:08:28.741Z,1.60
2023-02-21T09:11:01.473Z,1.50
2023-02-21T09:16:00.885Z,1.70
2023-02-21T09:18:31.404Z,2.50
2023-02-21T09:21:00.215Z,2.80
2023-02-21T09:23:30.056Z,1.70
2023-02-21T09:25:58.808Z,2.50
2023-02-21T09:28:29.902Z,2.90
2023-02-21T09:31:01.808Z,2.30
2023-02-21T09:33:36.652Z,2.50
2023-02-21T09:36:42.183Z,2.80
2023-02-21T09:39:19.121Z,3.30
2023-02-21T09:41:48.884Z,2.00
2023-02-21T09:44:19.698Z,1.90
2023-02-21T09:47:05.797Z,1.70
2023-02-21T09:49:40.890Z,1.90
2023-02-21T09:52:34.817Z,1.80
2023-02-21T09:55:31.164Z,1.20
2023-02-21T09:58:01.587Z,2.60
2023-02-21T10:00:52.488Z,2.00
2023-02-21T10:03:26.989Z,2.10
2023-02-21T10:05:59.436Z,3.10
2023-02-21T10:08:38.713Z,2.00
2023-02-21T10:11:35.141Z,1.90
2023-02-21T10:14:22.546Z,1.70
2023-02-21T10:16:56.645Z,2.10
2023-02-21T10:19:34.344Z,2.10
2023-02-21T10:22:11.141Z,2.40
2023-02-21T10:24:42.498Z,2.40
2023-02-21T10:27:26.929Z,2.00
2023-02-21T10:30:10.660Z,2.50
2023-02-21T10:32:39.799Z,3.30
2023-02-21T10:35:08.486Z,3.00
2023-02-21T10:38:04.044Z,2.80
2023-02-21T10:40:46.781Z,3.40
2023-02-21T10:43:31.518Z,2.30
2023-02-21T10:46:05.151Z,2.70
2023-02-21T10:48:37.843Z,2.00
2023-02-21T10:51:11.775Z,1.70
2023-02-21T10:53:42.154Z,1.80
2023-02-21T10:56:20.737Z,2.70
2023-02-21T10:58:58.232Z,2.90
2023-02-21T11:01:41.778Z,3.90
2023-02-21T11:04:22.771Z,4.20
2023-02-21T11:07:07.742Z,2.80
2023-02-21T11:09:45.368Z,11.40
2023-02-21T11:12:20.511Z,6.70
2023-02-21T11:14:52.428Z,2.50
2023-02-21T11:17:22.484Z,2.70
2023-02-21T11:19:58.160Z,1.90
2023-02-21T11:22:39.496Z,1.70
2023-02-21T11:25:25.207Z,2.20
2023-02-21T11:28:01.911Z,2.90
2023-02-21T11:30:33.161Z,3.20
2023-02-21T11:33:02.590Z,2.90
2023-02-21T11:35:38.135Z,2.80
2023-02-21T11:38:10.179Z,2.80
2023-02-21T11:43:21.928Z,1.30
2023-02-21T11:45:59.953Z,2.40
2023-02-21T11:48:33.107Z,2.20
2023-02-21T11:51:07.594Z,2.30
2023-02-21T11:53:42.076Z,2.20
2023-02-21T11:56:30.354Z,3.30
2023-02-21T11:59:03.130Z,2.60
2023-02-21T12:01:51.320Z,3.10
2023-02-21T12:04:46.086Z,3.00
2023-02-21T12:07:45.986Z,3.00
2023-02-21T12:11:02.949Z,3.30
2023-02-21T12:13:58.981Z,3.30
2023-02-21T12:16:52.580Z,3.70
2023-02-21T12:19:33.214Z,4.10
2023-02-21T12:22:08.070Z,4.20
2023-02-21T12:24:36.726Z,3.10
2023-02-21T12:27:40.630Z,3.10
2023-02-21T12:30:37.005Z,2.60
2023-02-21T12:33:06.259Z,2.20
2023-02-21T12:35:50.173Z,11.10
2023-02-21T12:38:37.285Z,3.00
2023-02-21T12:41:19.786Z,4.00
2023-02-21T12:44:16.169Z,2.00
2023-02-21T12:46:53.706Z,2.90
2023-02-21T12:49:27.140Z,2.60
2023-02-21T12:52:03.050Z,2.40
2023-02-21T12:54:47.452Z,1.90
2023-02-21T12:57:44.310Z,1.60
2023-02-21T13:00:17.856Z,3.20
2023-02-21T13:02:56.449Z,2.80
2023-02-21T13:05:47.044Z,2.20
2023-02-21T13:08:29.098Z,2.70
2023-02-21T13:11:21.857Z,3.90
2023-02-21T13:13:50.530Z,3.10
2023-02-21T13:16:20.092Z,1.70
2023-02-21T13:18:59.433Z,2.30
2023-02-21T13:21:53.240Z,3.60
2023-02-21T13:24:45.995Z,2.40
2023-02-21T13:29:52.870Z,2.20
2023-02-21T13:32:21.802Z,2.70
2023-02-21T13:34:59.955Z,2.40
2023-02-21T13:37:30.565Z,1.90
2023-02-21T13:40:23.478Z,2.80
2023-02-21T13:43:03.873Z,3.30
2023-02-21T13:45:33.941Z,2.00
2023-02-21T13:48:05.665Z,3.60
2023-02-21T13:50:40.186Z,2.70
2023-02-21T13:53:08.827Z,2.90
2023-02-21T13:55:37.816Z,2.80
2023-02-21T13:58:07.586Z,1.70
2023-02-21T14:00:36.608Z,1.80
2023-02-21T14:03:10.255Z,2.40
2023-02-21T14:05:52.690Z,2.40
2023-02-21T14:08:49.755Z,2.00
2023-02-21T14:11:24.222Z,2.60
2023-02-21T14:13:58.074Z,2.90
2023-02-21T14:16:37.360Z,2.10
2023-02-21T14:19:10.205Z,2.00
2023-02-21T14:21:47.546Z,1.90
2023-02-21T14:24:19.829Z,2.10
2023-02-21T14:26:52.924Z,1.70
2023-02-21T14:30:06.497Z,1.60
2023-02-21T14:32:43.554Z,1.40
2023-02-21T14:35:24.668Z,1.10
2023-02-21T14:38:04.493Z,1.30
2023-02-21T14:40:40.236Z,1.40
2023-02-21T14:43:38.575Z,1.00
2023-02-21T14:46:10.304Z,2.80
2023-02-21T14:49:18.136Z,2.70
2023-02-21T14:51:55.537Z,3.40
2023-02-21T14:54:49.098Z,2.70
2023-02-21T14:57:35.148Z,2.10
2023-02-21T15:00:22.072Z,2.00
2023-02-21T15:03:05.764Z,2.90
2023-02-21T15:05:45.912Z,2.90
2023-02-21T15:08:25.429Z,2.80
2023-02-21T15:11:02.311Z,2.90
2023-02-21T15:13:33.704Z,3.00
2023-02-21T15:16:12.279Z,2.80
2023-02-21T15:19:02.109Z,2.20
2023-02-21T15:21:34.461Z,2.40
2023-02-21T15:24:13.323Z,4.10
2023-02-21T15:26:42.151Z,3.30
2023-02-21T15:29:13.216Z,3.70
2023-02-21T15:31:43.025Z,2.90
2023-02-21T15:34:42.738Z,3.10
2023-02-21T15:37:25.394Z,2.10
2023-02-21T15:39:58.927Z,3.00
2023-02-21T15:42:27.825Z,2.30
2023-02-21T15:44:58.748Z,2.10
2023-02-21T15:47:28.502Z,2.30
2023-02-21T15:50:12.248Z,2.60
2023-02-21T15:52:42.377Z,2.10
2023-02-21T15:55:21.110Z,1.70
2023-02-21T15:58:05.376Z,2.50
2023-02-21T16:00:40.263Z,1.70
2023-02-21T16:03:36.362Z,2.30
2023-02-21T16:06:32.602Z,1.70
2023-02-21T16:09:05.728Z,1.40
2023-02-21T16:11:43.472Z,2.70
2023-02-21T16:14:18.127Z,2.00
2023-02-21T16:16:47.110Z,1.90
2023-02-21T16:19:15.733Z,2.90
2023-02-21T16:21:45.449Z,2.10
2023-02-21T16:24:31.961Z,2.80
2023-02-21T16:27:13.069Z,1.30
2023-02-21T16:29:41.815Z,1.40
2023-02-21T16:32:19.096Z,0.90
2023-02-21T16:34:47.937Z,1.90
2023-02-21T16:37:16.602Z,0.80
2023-02-21T16:39:45.721Z,1.40
2023-02-21T16:42:15.188Z,1.60
2023-02-21T16:44:43.829Z,1.80
2023-02-21T16:47:16.272Z,1.70
2023-02-21T16:49:45.041Z,1.60
2023-02-21T16:52:14.909Z,1.50
2023-02-21T16:54:44.406Z,1.50
2023-02-21T16:57:15.592Z,1.60
2023-02-21T16:59:45.172Z,1.10
2023-02-21T17:02:15.206Z,1.10
2023-02-21T17:04:44.102Z,1.50
2023-02-21T17:07:15.257Z,1.50
2023-02-21T17:09:44.363Z,1.40
2023-02-21T17:12:13.760Z,1.50
2023-02-21T17:14:43.235Z,1.00
2023-02-21T17:17:15.597Z,1.20
2023-02-21T17:19:44.598Z,0.90
2023-02-21T17:22:13.470Z,0.60
2023-02-21T17:24:42.801Z,1.00
2023-02-21T17:27:11.566Z,1.10
2023-02-21T17:29:40.492Z,0.70
2023-02-21T17:32:09.478Z,1.50
2023-02-21T17:34:38.783Z,0.90
2023-02-21T17:37:07.297Z,0.80
2023-02-21T17:39:40.937Z,0.80
2023-02-21T17:42:10.356Z,0.80
2023-02-21T17:44:43.952Z,1.00
2023-02-21T17:47:13.735Z,1.30
2023-02-21T17:49:42.690Z,1.00
2023-02-21T17:52:12.034Z,0.60
2023-02-21T17:54:41.133Z,0.90
2023-02-21T17:57:10.647Z,1.70
2023-02-21T17:59:40.037Z,2.20
2023-02-21T18:02:08.758Z,2.80
2023-02-21T18:04:37.801Z,2.60
2023-02-21T18:07:11.961Z,2.80
2023-02-21T18:09:40.801Z,5.20
2023-02-21T18:12:09.815Z,3.00
2023-02-21T18:14:38.772Z,2.20
2023-02-21T18:17:07.359Z,2.20
2023-02-21T18:19:36.386Z,2.90
2023-02-21T18:22:06.479Z,2.70
2023-02-21T18:24:35.531Z,3.30
2023-02-21T18:27:05.039Z,2.30
2023-02-21T18:29:33.792Z,1.80
2023-02-21T18:32:02.410Z,2.40
2023-02-21T18:34:31.682Z,1.90
2023-02-21T18:37:00.697Z,1.40
2023-02-21T18:39:29.761Z,1.40
2023-02-21T18:41:58.957Z,1.40
2023-02-21T18:44:27.869Z,1.80
2023-02-21T18:46:59.597Z,1.70
2023-02-21T18:49:28.348Z,1.60
2023-02-21T18:52:04.046Z,1.50
2023-02-21T18:54:35.607Z,2.70
2023-02-21T18:57:04.625Z,1.70
2023-02-21T18:59:34.413Z,2.10
2023-02-21T19:02:04.001Z,1.60
2023-02-21T19:04:33.610Z,1.80
2023-02-21T19:07:07.418Z,1.30
2023-02-21T19:09:36.739Z,3.00
2023-02-21T19:12:08.230Z,1.90
2023-02-21T19:14:37.949Z,2.20
2023-02-21T19:17:08.188Z,2.30
2023-02-21T19:19:37.674Z,2.10
2023-02-21T19:22:06.610Z,2.40
2023-02-21T19:24:35.909Z,1.80
2023-02-21T19:27:08.403Z,2.60
2023-02-21T19:29:38.970Z,2.20
2023-02-21T19:32:07.788Z,2.30
2023-02-21T19:34:37.821Z,1.80
2023-02-21T19:37:07.042Z,1.60
2023-02-21T19:39:37.017Z,1.80
2023-02-21T19:42:06.050Z,2.00
2023-02-21T19:44:35.139Z,2.10
2023-02-21T19:47:04.243Z,2.60
2023-02-21T19:49:34.294Z,1.20
2023-02-21T19:52:03.380Z,1.30
2023-02-21T19:54:35.004Z,1.00
2023-02-21T19:57:04.490Z,1.00
2023-02-21T19:59:34.168Z,1.50
2023-02-21T20:02:04.592Z,1.50
2023-02-21T20:04:35.357Z,1.90
2023-02-21T20:07:05.247Z,1.80
2023-02-21T20:09:34.136Z,1.40
2023-02-21T20:12:03.462Z,1.30
2023-02-21T20:14:32.694Z,1.40
2023-02-21T20:17:02.145Z,1.20
2023-02-21T20:22:03.383Z,1.60
2023-02-21T20:24:33.582Z,1.60
2023-02-21T20:27:02.948Z,1.20
2023-02-21T20:29:33.472Z,1.90
2023-02-21T20:32:04.165Z,1.90
2023-02-21T20:34:34.862Z,2.60
2023-02-21T20:37:03.546Z,1.60
2023-02-21T20:39:32.684Z,2.10
2023-02-21T20:42:02.790Z,1.30
2023-02-21T20:44:37.538Z,1.50
2023-02-21T20:47:06.750Z,1.70
2023-02-21T20:49:37.126Z,1.60
2023-02-21T20:52:06.848Z,2.10
2023-02-21T20:54:36.370Z,1.60
2023-02-21T20:57:04.877Z,2.10
2023-02-21T20:59:37.766Z,1.90
2023-02-21T21:02:10.193Z,1.80
2023-02-21T21:04:43.235Z,1.40
2023-02-21T21:07:20.163Z,1.90
2023-02-21T21:09:50.065Z,2.10
2023-02-21T21:12:20.530Z,2.00
2023-02-21T21:14:51.006Z,1.80
2023-02-21T21:17:21.599Z,2.50
2023-02-21T21:19:53.536Z,2.00
2023-02-21T21:22:27.515Z,2.30
2023-02-21T21:24:56.233Z,1.40
2023-02-21T21:27:26.398Z,1.30
2023-02-21T21:29:55.810Z,2.20
2023-02-21T21:32:25.739Z,1.50
2023-02-21T21:34:56.652Z,1.30
2023-02-21T21:37:28.790Z,2.00
2023-02-21T21:40:14.450Z,1.40
2023-02-21T21:42:49.262Z,1.70
2023-02-21T21:45:31.176Z,1.40
2023-02-21T21:48:00.603Z,1.60
2023-02-21T21:50:30.064Z,1.10
2023-02-21T21:52:59.043Z,1.40
2023-02-21T21:55:29.503Z,2.20
2023-02-21T21:57:59.173Z,1.70
2023-02-21T22:00:29.652Z,1.70
2023-02-21T22:03:00.396Z,1.50
2023-02-21T22:05:31.152Z,1.20
2023-02-21T22:08:00.125Z,1.20
2023-02-21T22:10:29.372Z,1.00
2023-02-21T22:13:00.682Z,1.00
2023-02-21T22:15:31.470Z,0.90
2023-02-21T22:18:04.207Z,1.50
2023-02-21T22:20:32.836Z,1.00
2023-02-21T22:23:02.941Z,1.00
2023-02-21T22:25:32.260Z,1.00
2023-02-21T22:28:04.076Z,1.00
2023-02-21T22:30:34.502Z,1.20
2023-02-21T22:33:03.991Z,1.20
2023-02-21T22:35:32.773Z,0.90
2023-02-21T22:38:05.167Z,1.00
2023-02-21T22:40:37.273Z,1.10
2023-02-21T22:43:06.097Z,0.90
2023-02-21T22:45:36.106Z,0.90
2023-02-21T22:50:37.729Z,0.90
2023-02-21T22:53:09.097Z,1.10
2023-02-21T22:55:38.309Z,0.70
2023-02-21T22:58:09.453Z,0.90
2023-02-21T23:00:38.347Z,0.90
2023-02-21T23:03:13.384Z,0.70
2023-02-21T23:05:44.014Z,0.60
2023-02-21T23:08:16.225Z,1.10
2023-02-21T23:10:44.923Z,1.00
2023-02-21T23:13:16.758Z,1.10
2023-02-21T23:15:45.701Z,1.10
2023-02-21T23:18:23.457Z,1.00
2023-02-21T23:20:56.690Z,1.00
2023-02-21T23:23:27.843Z,1.10
2023-02-21T23:25:59.257Z,1.20
2023-02-21T23:28:29.605Z,1.10
2023-02-21T23:30:58.635Z,0.90
2023-02-21T23:33:29.587Z,1.10
2023-02-21T23:35:59.232Z,0.90
2023-02-21T23:38:28.501Z,1.20
2023-02-21T23:41:02.180Z,1.00
2023-02-21T23:43:31.293Z,1.20
2023-02-21T23:46:00.552Z,1.00
2023-02-21T23:48:30.165Z,1.60
2023-02-21T23:50:58.898Z,1.00
2023-02-21T23:53:28.803Z,1.30
2023-02-21T23:56:01.114Z,1.60
2023-02-21T23:58:34.297Z,2.10
